This is the latest recevied weather packets stored in our database for station/object KB3KAV. If no packets are shown the sender has not sent any weather packets the latest 10 day(s).
| Time | Temp. | Humidity | Pressure | Rain* | Wind** | Luminosity | Snow |
|---|---|---|---|---|---|---|---|
| 1777585143 | 12.78° C | 63% | 1037.3 hPa | 0 mm | - | 14 W/m² | - |
| 1777584543 | 13.33° C | 64% | 1037.1 hPa | 0 mm | - | 19 W/m² | - |
| 1777583939 | 13.33° C | 62% | 1037 hPa | 0 mm | - | 54 W/m² | - |
| 1777583333 | 13.33° C | 64% | 1036.5 hPa | 0 mm | - | 71 W/m² | - |
| 1777582732 | 13.33° C | 59% | 1036.7 hPa | 0 mm | - | 48 W/m² | - |
| 1777582127 | 13.33° C | 61% | 1036.6 hPa | 0 mm | - | 36 W/m² | - |
| 1777581525 | 13.89° C | 59% | 1036.5 hPa | 0 mm | - | 36 W/m² | - |
| 1777580921 | 14.44° C | 57% | 1036.5 hPa | 0 mm | - | 97 W/m² | - |
| 1777580317 | 14.44° C | 56% | 1036.5 hPa | 0 mm | - | 177 W/m² | - |
| 1777579715 | 13.89° C | 59% | 1036.3 hPa | 0 mm | - | 172 W/m² | - |
| 1777579115 | 14.44° C | 56% | 1036.5 hPa | 0 mm | - | 130 W/m² | - |
| 1777578511 | 14.44° C | 56% | 1036.4 hPa | 0 mm | - | 457 W/m² | - |
| 1777577907 | 14.44° C | 57% | 1036.5 hPa | 0 mm | - | 224 W/m² | - |
| 1777577307 | 13.89° C | 57% | 1036.5 hPa | 0 mm | - | 889 W/m² | - |
| 1777576706 | 13.89° C | 59% | 1036.4 hPa | 0 mm | - | 239 W/m² | - |
| 1777576101 | 13.89° C | 59% | 1036.6 hPa | 0 mm | - | 205 W/m² | - |
| 1777575499 | 13.89° C | 61% | 1036.4 hPa | 0 mm | - | 337 W/m² | - |
| 1777574897 | 13.89° C | 62% | 1036.6 hPa | 0 mm | - | 179 W/m² | - |
| 1777574296 | 13.33° C | 61% | 1037 hPa | 0 mm | - | 142 W/m² | - |
| 1777573692 | 13.33° C | 62% | 1036.8 hPa | 0 mm | - | 188 W/m² | - |
| 1777573091 | 13.33° C | 61% | 1037 hPa | 0 mm | - | 295 W/m² | - |
| 1777572488 | 13.33° C | 65% | 1036.8 hPa | 0 mm | - | 307 W/m² | - |
| 1777571885 | 12.78° C | 63% | 1036.9 hPa | 0 mm | - | 260 W/m² | - |
| 1777571284 | 13.33° C | 63% | 1036.7 hPa | 0 mm | - | 206 W/m² | - |
| 1777570682 | 12.78° C | 65% | 1036.8 hPa | 0 mm | - | 273 W/m² | - |
* Rain latest hour (hover to see other rain measurements)
** Current wind speed in m/s (hover to see current wind gust speed)